createdAt,value
2017-03-26T00:01:06.942Z,87.638
2017-03-26T00:04:01.167Z,87.480
2017-03-26T00:06:55.610Z,87.634
2017-03-26T00:09:49.744Z,87.873
2017-03-26T00:12:45.516Z,88.069
2017-03-26T00:15:38.082Z,87.953
2017-03-26T00:18:32.204Z,88.084
2017-03-26T00:21:26.395Z,88.119
2017-03-26T00:24:20.382Z,88.120
2017-03-26T00:27:14.537Z,88.330
2017-03-26T00:30:08.610Z,88.696
2017-03-26T00:33:02.665Z,89.275
2017-03-26T00:35:56.616Z,89.170
2017-03-26T00:38:52.209Z,89.518
2017-03-26T00:41:44.566Z,90.128
2017-03-26T00:44:38.510Z,89.504
2017-03-26T00:47:34.132Z,89.159
2017-03-26T00:50:26.359Z,89.711
2017-03-26T00:53:22.115Z,90.544
2017-03-26T00:56:14.457Z,90.494
2017-03-26T00:59:08.523Z,91.291
2017-03-26T01:02:02.355Z,91.575
2017-03-26T01:04:56.257Z,90.875
2017-03-26T01:07:50.156Z,90.231
2017-03-26T01:10:44.183Z,90.567
2017-03-26T01:13:38.068Z,91.498
2017-03-26T01:16:31.854Z,91.504
2017-03-26T01:19:25.691Z,90.983
2017-03-26T01:22:20.159Z,91.195
2017-03-26T01:25:14.088Z,91.113
2017-03-26T01:28:07.988Z,91.116
2017-03-26T01:31:01.779Z,91.166
2017-03-26T01:33:55.757Z,91.182
2017-03-26T01:36:51.340Z,91.307
2017-03-26T01:39:43.675Z,91.498
2017-03-26T01:42:37.552Z,91.189
2017-03-26T01:45:31.401Z,91.460
2017-03-26T01:48:25.369Z,91.553
2017-03-26T01:51:20.877Z,91.700
2017-03-26T01:54:13.111Z,91.105
2017-03-26T01:57:06.919Z,91.440
2017-03-26T02:00:00.707Z,91.389
2017-03-26T02:02:54.600Z,91.658
2017-03-26T02:05:48.362Z,92.506
2017-03-26T02:08:42.108Z,92.142
2017-03-26T02:11:35.912Z,92.451
2017-03-26T02:14:29.847Z,92.157
2017-03-26T02:17:25.495Z,91.898
2017-03-26T02:20:17.414Z,91.724
2017-03-26T02:23:11.176Z,91.951
2017-03-26T02:26:04.911Z,92.138
2017-03-26T02:28:58.830Z,92.559
2017-03-26T02:31:52.724Z,92.990
2017-03-26T02:34:46.435Z,92.820
2017-03-26T02:37:41.895Z,92.612
2017-03-26T02:40:34.033Z,93.327
2017-03-26T02:43:27.945Z,93.135
2017-03-26T02:46:21.774Z,93.793
2017-03-26T02:49:17.334Z,93.921
2017-03-26T02:52:09.527Z,94.074
2017-03-26T02:55:04.909Z,94.164
2017-03-26T02:57:57.075Z,93.921
2017-03-26T03:00:50.974Z,93.892
2017-03-26T03:03:44.827Z,93.892
2017-03-26T03:06:38.516Z,94.121
2017-03-26T03:09:34.945Z,94.522
2017-03-26T03:12:26.414Z,94.458
2017-03-26T03:15:20.223Z,94.012
2017-03-26T03:18:14.067Z,94.573
2017-03-26T03:21:07.882Z,94.213
2017-03-26T03:24:01.630Z,94.282
2017-03-26T03:26:57.067Z,94.167
2017-03-26T03:29:50.957Z,94.633
2017-03-26T03:32:43.094Z,94.675
2017-03-26T03:35:36.823Z,94.475
2017-03-26T03:38:30.639Z,94.592
2017-03-26T03:41:26.081Z,94.763
2017-03-26T03:44:18.166Z,94.727
2017-03-26T03:47:13.605Z,94.485
2017-03-26T03:50:06.603Z,94.457
2017-03-26T03:52:59.439Z,94.458
2017-03-26T03:55:53.210Z,94.265
2017-03-26T03:58:46.878Z,94.195
2017-03-26T04:01:40.676Z,94.600
2017-03-26T04:04:34.754Z,94.419
2017-03-26T04:07:28.460Z,94.556
2017-03-26T04:10:22.520Z,94.370
2017-03-26T04:13:17.931Z,94.465
2017-03-26T04:16:10.002Z,94.745
2017-03-26T04:19:05.547Z,94.546
2017-03-26T04:21:57.637Z,94.473
2017-03-26T04:24:51.447Z,94.865
2017-03-26T04:27:45.224Z,95.055
2017-03-26T04:30:39.966Z,95.192
2017-03-26T04:33:34.538Z,94.952
2017-03-26T04:36:26.709Z,94.748
2017-03-26T04:39:20.495Z,94.997
2017-03-26T04:42:14.254Z,94.859
2017-03-26T04:45:07.985Z,94.849
2017-03-26T04:48:03.271Z,94.957
2017-03-26T04:50:55.279Z,94.656
2017-03-26T04:53:48.873Z,94.548
2017-03-26T04:56:42.691Z,94.484
2017-03-26T04:59:36.178Z,94.691
2017-03-26T05:02:29.773Z,94.905
2017-03-26T05:05:23.395Z,94.900
2017-03-26T05:08:17.013Z,94.709
2017-03-26T05:11:10.656Z,94.734
2017-03-26T05:14:04.393Z,94.468
2017-03-26T05:16:59.715Z,94.245
2017-03-26T05:19:51.763Z,94.005
2017-03-26T05:22:45.497Z,93.758
2017-03-26T05:25:39.162Z,93.293
2017-03-26T05:28:34.583Z,93.251
2017-03-26T05:31:26.581Z,92.639
2017-03-26T05:34:20.352Z,91.999
2017-03-26T05:37:14.092Z,91.474
2017-03-26T05:40:07.901Z,90.625
2017-03-26T05:43:01.661Z,89.508
2017-03-26T05:45:57.311Z,87.917
2017-03-26T05:48:51.160Z,86.193
2017-03-26T05:51:43.309Z,85.500
2017-03-26T05:54:37.263Z,83.989
2017-03-26T05:57:32.793Z,83.893
2017-03-26T06:00:26.817Z,82.853
2017-03-26T06:03:19.082Z,81.939
2017-03-26T06:06:13.099Z,81.206
2017-03-26T06:09:08.846Z,79.925
2017-03-26T06:12:01.273Z,78.800
2017-03-26T06:14:55.278Z,78.575
2017-03-26T06:17:49.359Z,79.337
2017-03-26T06:20:45.125Z,77.928
2017-03-26T06:23:37.567Z,76.523
2017-03-26T06:26:31.670Z,75.975
2017-03-26T06:29:25.860Z,74.447
2017-03-26T06:32:19.972Z,70.758
2017-03-26T06:35:16.134Z,65.948
2017-03-26T06:38:08.887Z,60.634
2017-03-26T06:41:03.494Z,56.291
2017-03-26T06:43:58.309Z,52.150
2017-03-26T06:46:53.043Z,48.308
2017-03-26T06:49:47.966Z,46.000
2017-03-26T06:52:42.892Z,44.178
2017-03-26T06:55:37.799Z,45.387
2017-03-26T06:58:32.665Z,43.856
2017-03-26T07:01:27.527Z,42.747
2017-03-26T07:04:22.376Z,42.896
2017-03-26T07:07:17.199Z,43.012
2017-03-26T07:10:13.861Z,41.145
2017-03-26T07:13:07.064Z,40.288
2017-03-26T07:16:01.957Z,40.519
2017-03-26T07:18:56.847Z,43.369
2017-03-26T07:21:51.745Z,43.542
2017-03-26T07:24:46.720Z,41.753
2017-03-26T07:27:41.799Z,44.531
2017-03-26T07:30:36.835Z,41.128
2017-03-26T07:33:32.058Z,42.622
2017-03-26T07:36:27.335Z,40.653
2017-03-26T07:39:22.648Z,37.881
2017-03-26T07:42:17.971Z,38.333
2017-03-26T07:45:13.432Z,39.685
2017-03-26T07:48:08.817Z,38.308
2017-03-26T07:51:04.580Z,39.748
2017-03-26T07:53:59.948Z,38.842
2017-03-26T07:56:55.358Z,34.326
2017-03-26T07:59:50.717Z,33.575
2017-03-26T08:02:46.207Z,35.693
2017-03-26T08:05:41.823Z,38.570
2017-03-26T08:08:37.245Z,32.535
2017-03-26T08:11:32.616Z,32.325
2017-03-26T08:14:29.823Z,34.218
2017-03-26T08:17:23.375Z,32.717
2017-03-26T08:20:18.708Z,33.953
2017-03-26T08:23:13.940Z,30.746
2017-03-26T08:26:09.294Z,29.400
2017-03-26T08:29:04.603Z,25.829
2017-03-26T08:32:00.024Z,26.456
2017-03-26T08:34:55.635Z,27.903
2017-03-26T08:37:51.010Z,27.420
2017-03-26T08:40:46.485Z,26.497
2017-03-26T08:43:42.069Z,25.958
2017-03-26T08:46:37.452Z,28.394
2017-03-26T08:49:34.490Z,23.281
2017-03-26T08:52:28.195Z,27.879
2017-03-26T08:55:23.648Z,28.053
2017-03-26T08:58:18.663Z,26.867
2017-03-26T09:01:13.875Z,25.682
2017-03-26T09:04:09.379Z,26.561
2017-03-26T09:07:04.950Z,22.231
2017-03-26T09:10:00.298Z,28.429
2017-03-26T09:12:55.721Z,24.599
2017-03-26T09:15:51.241Z,23.821
2017-03-26T09:18:46.908Z,24.977
2017-03-26T09:21:42.497Z,22.337
2017-03-26T09:24:38.108Z,19.178
2017-03-26T09:27:33.896Z,22.416
2017-03-26T09:30:29.726Z,17.704
2017-03-26T09:33:25.329Z,18.503
2017-03-26T09:36:22.617Z,15.896
2017-03-26T09:39:16.484Z,13.541
2017-03-26T09:42:11.951Z,15.386
2017-03-26T09:45:07.216Z,11.300
2017-03-26T09:48:02.178Z,15.068
2017-03-26T09:50:57.269Z,11.653
2017-03-26T09:53:52.408Z,12.031
2017-03-26T09:56:47.695Z,15.798
2017-03-26T09:59:42.939Z,17.143
2017-03-26T10:02:38.282Z,19.452
2017-03-26T10:05:33.886Z,18.818
2017-03-26T10:08:29.317Z,16.034
2017-03-26T10:11:24.606Z,15.031
2017-03-26T10:14:19.998Z,15.313
2017-03-26T10:17:15.779Z,15.916
2017-03-26T10:20:11.326Z,11.417
2017-03-26T10:23:06.992Z,14.927
2017-03-26T10:26:02.293Z,9.728
2017-03-26T10:28:56.920Z,12.127
2017-03-26T10:31:51.349Z,18.334
2017-03-26T10:34:45.704Z,21.920
2017-03-26T10:37:40.095Z,25.527
2017-03-26T10:40:34.578Z,27.178
2017-03-26T10:43:29.035Z,31.371
2017-03-26T10:46:23.444Z,32.313
2017-03-26T10:49:17.830Z,34.496
2017-03-26T10:52:12.392Z,37.131
2017-03-26T10:55:08.794Z,36.673
2017-03-26T10:58:01.586Z,38.020
2017-03-26T11:00:56.104Z,39.895
2017-03-26T11:03:50.764Z,38.651
2017-03-26T11:06:45.210Z,39.801
2017-03-26T11:09:39.833Z,41.045
2017-03-26T11:12:34.375Z,40.492
2017-03-26T11:15:28.869Z,40.731
2017-03-26T11:18:23.394Z,39.512
2017-03-26T11:21:17.928Z,40.470
2017-03-26T11:24:12.944Z,39.275
2017-03-26T11:27:07.502Z,41.500
2017-03-26T11:30:02.137Z,43.655
2017-03-26T11:32:58.475Z,41.879
2017-03-26T11:35:51.243Z,44.238
2017-03-26T11:38:45.724Z,42.556
2017-03-26T11:41:40.156Z,43.466
2017-03-26T11:44:36.329Z,43.558
2017-03-26T11:47:30.868Z,45.829
2017-03-26T11:50:23.670Z,45.365
2017-03-26T11:53:18.180Z,44.817
2017-03-26T11:56:12.787Z,44.053
2017-03-26T11:59:07.271Z,44.144
2017-03-26T12:02:01.853Z,44.935
2017-03-26T12:04:56.248Z,44.999
2017-03-26T12:07:50.808Z,44.945
2017-03-26T12:10:47.062Z,44.290
2017-03-26T12:13:39.930Z,44.354
2017-03-26T12:16:36.206Z,43.405
2017-03-26T12:19:29.122Z,44.437
2017-03-26T12:22:23.735Z,43.403
2017-03-26T12:25:18.238Z,43.446
2017-03-26T12:28:12.787Z,43.714
2017-03-26T12:31:07.362Z,43.380
2017-03-26T12:34:01.781Z,44.299
2017-03-26T12:36:56.335Z,42.747
2017-03-26T12:39:50.849Z,42.041
2017-03-26T12:42:47.147Z,41.624
2017-03-26T12:45:39.968Z,42.541
2017-03-26T12:48:34.510Z,42.283
2017-03-26T12:51:29.049Z,42.819
2017-03-26T12:54:23.977Z,41.987
2017-03-26T12:57:18.485Z,41.278
2017-03-26T13:00:13.108Z,41.444
2017-03-26T13:03:07.700Z,41.928
2017-03-26T13:06:02.213Z,41.684
2017-03-26T13:08:56.797Z,41.306
2017-03-26T13:11:51.259Z,41.125
2017-03-26T13:14:45.856Z,40.168
2017-03-26T13:17:40.319Z,40.578
2017-03-26T13:20:34.917Z,40.895
2017-03-26T13:23:29.628Z,39.479
2017-03-26T13:26:24.144Z,40.714
2017-03-26T13:29:18.682Z,40.441
2017-03-26T13:32:13.284Z,39.965
2017-03-26T13:35:07.964Z,40.399
2017-03-26T13:38:02.521Z,41.143
2017-03-26T13:40:57.093Z,39.782
2017-03-26T13:43:51.706Z,42.293
2017-03-26T13:46:46.292Z,41.182
2017-03-26T13:49:40.927Z,42.470
2017-03-26T13:52:35.696Z,40.897
2017-03-26T13:55:30.361Z,39.261
2017-03-26T13:58:24.965Z,39.676
2017-03-26T14:01:19.544Z,39.322
2017-03-26T14:04:13.989Z,39.109
2017-03-26T14:07:08.726Z,39.375
2017-03-26T14:10:03.423Z,39.417
2017-03-26T14:12:58.073Z,38.284
2017-03-26T14:15:53.090Z,38.820
2017-03-26T14:18:47.645Z,39.479
2017-03-26T14:21:42.314Z,38.375
2017-03-26T14:24:36.914Z,40.116
2017-03-26T14:27:31.691Z,39.586
2017-03-26T14:30:26.410Z,39.743
2017-03-26T14:33:21.067Z,40.809
2017-03-26T14:36:15.693Z,40.986
2017-03-26T14:39:10.313Z,39.315
2017-03-26T14:42:05.029Z,39.228
2017-03-26T14:44:59.632Z,39.823
2017-03-26T14:47:54.238Z,40.157
2017-03-26T14:50:48.833Z,40.326
2017-03-26T14:53:43.352Z,39.803
2017-03-26T14:56:37.932Z,40.959
2017-03-26T14:59:32.434Z,41.598
2017-03-26T15:02:26.833Z,41.763
2017-03-26T15:05:21.359Z,41.917
2017-03-26T15:08:15.962Z,41.453
2017-03-26T15:11:10.459Z,41.837
2017-03-26T15:14:05.003Z,41.987
2017-03-26T15:16:59.669Z,41.916
2017-03-26T15:19:54.231Z,42.567
2017-03-26T15:22:48.736Z,43.063
2017-03-26T15:25:43.280Z,42.578
2017-03-26T15:28:37.848Z,42.630
2017-03-26T15:31:32.341Z,42.270
2017-03-26T15:34:26.824Z,42.546
2017-03-26T15:37:21.286Z,43.208
2017-03-26T15:40:15.772Z,42.629
2017-03-26T15:43:10.308Z,43.564
2017-03-26T15:46:04.835Z,42.292
2017-03-26T15:48:59.325Z,42.830
2017-03-26T15:51:53.898Z,43.260
2017-03-26T15:54:48.407Z,42.809
2017-03-26T15:57:43.083Z,42.796
2017-03-26T16:00:37.670Z,43.719
2017-03-26T16:03:32.073Z,43.279
2017-03-26T16:06:26.640Z,43.005
2017-03-26T16:09:21.199Z,43.080
2017-03-26T16:12:15.779Z,43.469
2017-03-26T16:15:10.214Z,43.699
2017-03-26T16:18:04.732Z,43.151
2017-03-26T16:20:59.212Z,44.259
2017-03-26T16:23:53.712Z,43.944
2017-03-26T16:26:48.305Z,44.724
2017-03-26T16:29:42.833Z,43.690
2017-03-26T16:32:37.508Z,43.830
2017-03-26T16:35:31.946Z,44.651
2017-03-26T16:38:26.448Z,44.385
2017-03-26T16:41:20.944Z,45.684
2017-03-26T16:44:15.386Z,45.293
2017-03-26T16:47:10.328Z,45.877
2017-03-26T16:50:04.912Z,46.432
2017-03-26T16:52:59.403Z,46.275
2017-03-26T16:55:53.922Z,47.209
2017-03-26T16:58:48.370Z,47.579
2017-03-26T17:01:42.834Z,46.994
2017-03-26T17:04:37.272Z,47.873
2017-03-26T17:07:31.753Z,48.541
2017-03-26T17:10:26.115Z,48.579
2017-03-26T17:13:20.614Z,48.601
2017-03-26T17:16:16.699Z,49.345
2017-03-26T17:19:09.494Z,48.902
2017-03-26T17:22:03.968Z,50.397
2017-03-26T17:24:58.356Z,51.385
2017-03-26T17:27:52.707Z,51.592
2017-03-26T17:30:47.098Z,50.333
2017-03-26T17:33:41.412Z,51.659
2017-03-26T17:36:37.464Z,51.317
2017-03-26T17:39:30.203Z,52.087
2017-03-26T17:42:26.412Z,53.606
2017-03-26T17:45:19.092Z,52.977
2017-03-26T17:48:13.454Z,52.505
2017-03-26T17:51:09.555Z,53.297
2017-03-26T17:54:02.532Z,54.062
2017-03-26T17:56:56.806Z,54.150
2017-03-26T17:59:51.140Z,55.738
2017-03-26T18:02:45.366Z,56.747
2017-03-26T18:05:39.618Z,56.831
2017-03-26T18:08:33.940Z,57.421
2017-03-26T18:11:29.892Z,57.679
2017-03-26T18:14:22.524Z,57.600
2017-03-26T18:17:18.519Z,58.347
2017-03-26T18:20:11.021Z,58.985
2017-03-26T18:23:05.342Z,58.245
2017-03-26T18:25:59.589Z,59.664
2017-03-26T18:28:53.775Z,59.976
2017-03-26T18:31:47.901Z,60.787
2017-03-26T18:34:42.116Z,60.098
2017-03-26T18:37:36.191Z,60.046
2017-03-26T18:40:30.350Z,60.844
2017-03-26T18:43:24.392Z,60.705
2017-03-26T18:46:18.637Z,59.891
2017-03-26T18:49:12.844Z,60.702
2017-03-26T18:52:07.048Z,60.890
2017-03-26T18:55:01.144Z,61.866
2017-03-26T18:57:57.053Z,61.015
2017-03-26T19:00:49.575Z,60.648
2017-03-26T19:03:43.860Z,61.681
2017-03-26T19:06:38.049Z,61.197
2017-03-26T19:09:34.076Z,61.933
2017-03-26T19:12:28.229Z,62.849
2017-03-26T19:15:20.650Z,62.755
2017-03-26T19:18:14.898Z,63.343
2017-03-26T19:21:09.109Z,62.944
2017-03-26T19:24:03.178Z,63.643
2017-03-26T19:26:57.695Z,63.638
2017-03-26T19:29:51.916Z,63.541
2017-03-26T19:32:46.125Z,64.334
2017-03-26T19:35:40.278Z,65.674
2017-03-26T19:38:34.623Z,65.588
2017-03-26T19:41:30.437Z,65.739
2017-03-26T19:44:22.886Z,67.468
2017-03-26T19:47:17.035Z,67.354
2017-03-26T19:50:11.127Z,66.574
2017-03-26T19:53:05.239Z,67.637
2017-03-26T19:55:59.351Z,68.450
2017-03-26T19:58:53.474Z,67.859
2017-03-26T20:01:47.551Z,68.186
2017-03-26T20:04:43.285Z,67.660
2017-03-26T20:07:37.490Z,67.407
2017-03-26T20:10:30.082Z,68.161
2017-03-26T20:13:25.809Z,69.505
2017-03-26T20:16:18.201Z,69.139
2017-03-26T20:19:12.348Z,69.415
2017-03-26T20:22:06.373Z,69.484
2017-03-26T20:25:00.560Z,69.733
2017-03-26T20:27:54.678Z,68.601
2017-03-26T20:30:48.662Z,69.521
2017-03-26T20:33:42.589Z,69.958
2017-03-26T20:36:36.628Z,69.484
2017-03-26T20:39:30.564Z,70.111
2017-03-26T20:42:24.526Z,69.856
2017-03-26T20:45:18.541Z,71.084
2017-03-26T20:48:12.636Z,70.787
2017-03-26T20:51:06.651Z,70.765
2017-03-26T20:54:00.728Z,71.208
2017-03-26T20:56:54.781Z,70.917
2017-03-26T20:59:48.827Z,71.895
2017-03-26T21:02:42.784Z,71.973
2017-03-26T21:05:36.992Z,72.781
2017-03-26T21:08:31.086Z,72.944
2017-03-26T21:11:26.810Z,72.891
2017-03-26T21:14:19.143Z,72.865
2017-03-26T21:17:13.166Z,72.728
2017-03-26T21:20:07.202Z,72.420
2017-03-26T21:23:01.178Z,73.501
2017-03-26T21:25:55.115Z,73.146
2017-03-26T21:28:49.148Z,73.520
2017-03-26T21:31:43.118Z,72.170
2017-03-26T21:34:37.173Z,72.149
2017-03-26T21:37:32.853Z,72.963
2017-03-26T21:40:25.091Z,73.103
2017-03-26T21:43:19.093Z,72.948
2017-03-26T21:46:13.104Z,73.475
2017-03-26T21:49:08.702Z,72.594
2017-03-26T21:52:01.448Z,73.067
2017-03-26T21:54:55.507Z,73.755
2017-03-26T21:57:49.406Z,73.875
2017-03-26T22:00:43.328Z,74.261
2017-03-26T22:03:37.450Z,74.891
2017-03-26T22:06:31.420Z,73.705
2017-03-26T22:09:25.492Z,73.426
2017-03-26T22:12:19.496Z,74.784
2017-03-26T22:15:15.178Z,74.165
2017-03-26T22:18:07.661Z,74.620
2017-03-26T22:21:03.455Z,74.431
2017-03-26T22:23:55.673Z,74.862
2017-03-26T22:26:49.753Z,74.555
2017-03-26T22:29:43.939Z,75.263
2017-03-26T22:32:37.922Z,75.007
2017-03-26T22:35:32.748Z,74.862
2017-03-26T22:38:26.113Z,75.180
2017-03-26T22:41:21.794Z,76.605
2017-03-26T22:44:14.177Z,75.939
2017-03-26T22:47:08.256Z,76.845
2017-03-26T22:50:02.313Z,76.292
2017-03-26T22:52:56.307Z,76.151
2017-03-26T22:55:50.351Z,76.114
2017-03-26T22:58:44.344Z,75.625
2017-03-26T23:01:38.535Z,77.836
2017-03-26T23:04:32.476Z,77.835
2017-03-26T23:07:27.097Z,77.309
2017-03-26T23:10:21.197Z,78.103
2017-03-26T23:13:15.248Z,77.787
2017-03-26T23:16:09.308Z,78.310
2017-03-26T23:19:03.412Z,78.279
2017-03-26T23:21:57.431Z,77.984
2017-03-26T23:24:51.469Z,78.148
2017-03-26T23:27:45.577Z,78.993
2017-03-26T23:30:39.666Z,78.992
2017-03-26T23:33:33.651Z,78.735
2017-03-26T23:36:27.772Z,78.591
2017-03-26T23:39:21.838Z,78.803
2017-03-26T23:42:15.784Z,78.944
2017-03-26T23:45:09.821Z,79.444
2017-03-26T23:48:03.818Z,79.456
2017-03-26T23:50:59.623Z,79.538
2017-03-26T23:53:51.837Z,80.019
2017-03-26T23:56:45.853Z,79.552
2017-03-26T23:59:40.502Z,79.706
